x

Grays Reef - 40 Nm Southeast Of Savannah, Ga (41008) Wave Buoy

10:50am - Wed 27th May 2015 All times are EDT. -4 hours from GMT.

  • Sig Wave height 3.3ft
  • Swell Direction
  • Peak Period 7s
  • Average Period 5s
  • Wind
    7mph, 9mph gusts
  • Sea Temp 77°f
  • Air Temp 77°f
  • Sea Pressure 1024.9mb
  • Grays Reef - 40 Nm Southeast Of Savannah, Ga
  • Grays Reef - 40 Nm Southeast Of Savannah, Ga

More Historic Weather Station data

Upgrade to MSW Pro to gain access to the past 30 days of data for over 8000 Wavebouys and Weather Stations around the globe.

Join Pro

Comparision Forecast

View Surf forecast
   
Wed 05/27 10:50am 3.5ft 7s 5s 7 9 mph 1024.9mb 77f 77f
9:50am 3ft 5s 5s 7 9 mph 1024.8mb 77f 77f
8:50am 3ft 6s 5s 9
mph
1024.5mb 77f 77f
7:50am 3ft 7s 5s 13 16 mph 1023.3mb 77f 77f
6:50am 3ft 6s 5s 11 13 mph 1022.7mb 77f 77f
5:50am 3ft 7s 5s 11 13 mph 1022mb 77f 76f
4:50am 3ft 6s 5s 13 16 mph 1021.2mb 77f 77f
3:50am 3.5ft 7s 5s 13 16 mph 1021.5mb 77f 77f
2:50am 3.5ft 6s 5s 11 13 mph 1022.7mb 78f 77f
1:50am 3.5ft 6s 5s 13
mph
1023.8mb 78f 77f
12:50am 3.5ft 5s 4s 11
mph
1024.7mb 78f 78f
Tue 05/26 11:50pm 3ft 6s 4s 11 13 mph 1024.8mb 78f 78f
10:50pm 3ft 6s 4s 13 16 mph 1024.8mb 78f 78f
9:50pm 2.5ft 7s 4s 11 13 mph 1024.1mb 78f 78f
8:50pm 2.5ft 7s 5s 13 16 mph 1023.9mb 78f 78f
7:50pm 2.5ft 7s 5s 11 13 mph 1023.3mb 79f 79f
6:50pm 2.5ft 7s 5s 9 11 mph 1022.8mb 79f 78f
5:50pm 2.5ft 7s 5s 11 13 mph 1022.4mb 79f 78f
4:50pm 2.5ft 7s 5s 9 11 mph 1022.8mb 78f 78f
3:50pm 3ft 7s 5s 13 16 mph 1022.9mb 79f 77f
2:50pm 3ft 7s 5s 11 13 mph 1023.5mb 79f 78f
11:50am 3ft 6s 5s 4 7 mph 1025mb 77f 77f
10:50am 3ft 7s 5s 7
mph
1025mb 77f 77f
9:50am 3ft 7s 5s 4 7 mph 1025mb 77f 77f
8:50am 2.5ft 7s 5s 4 7 mph 1025mb 76f 77f
7:50am 2.5ft 7s 5s 2 4 mph 1024.6mb 76f 77f
6:50am 2.5ft 7s 5s 4
mph
1023.7mb 76f 76f
5:50am 2.5ft 8s 5s 7 9 mph 1022.9mb 76f 76f
4:50am 2.5ft 8s 5s 7
mph
1022.6mb 75f 76f
3:50am 2.5ft 7s 5s 7 9 mph 1022.6mb 75f 76f
2:50am 3ft 7s 5s 7 9 mph 1022.8mb 75f 76f
1:50am 3.5ft 7s 5s 9 11 mph 1022.9mb 75f 76f
12:50am 3.5ft 7s 5s 9 11 mph 1023.8mb 76f 76f
Mon 05/25 11:50pm 3.5ft 7s 5s 11
mph
1024.3mb 76f 76f
10:50pm 3.5ft 7s 5s 11
mph
1024.3mb 76f 76f
9:50pm 3.5ft 8s 5s 11 13 mph 1023.7mb 76f 76f
8:50pm 3.5ft 8s 6s 11 13 mph 1023.4mb 76f 76f
7:50pm 3.5ft 8s 6s 11 13 mph 1023.6mb 76f 76f
6:50pm 3.5ft 8s 5s 9 13 mph 1023.6mb 76f 77f
5:50pm 3.5ft 8s 5s 9 11 mph 1023.6mb 77f 77f
4:50pm 3.5ft 8s 6s 9 11 mph 1023.8mb 77f 77f
3:50pm 3.5ft 8s 6s 9 11 mph 1024.1mb 76f 76f
2:50pm 3.5ft 8s 5s 9 11 mph 1024.6mb 76f 76f
1:50pm 4ft 8s 5s 11 13 mph 1024.8mb 76f 76f
12:50pm 4ft 8s 5s 11 13 mph 1025.2mb 76f 76f
11:50am 4.5ft 8s 5s 11 13 mph 1025.4mb 76f 76f
10:50am 4.5ft 8s 5s 11 13 mph 1025.3mb 75f 76f
9:50am 5ft 8s 5s 11 13 mph 1025.3mb 75f 76f
8:50am 4.5ft 8s 6s 11 13 mph 1025.1mb 75f 76f
7:50am 5ft 9s 6s 11
mph
1024.5mb 75f 76f
6:50am 5ft 9s 6s 11 13 mph 1024mb 75f 76f
5:50am 5ft 8s 6s 4 7 mph 1023.7mb 75f 74f
4:50am 5ft 9s 6s 13 18 mph 1023.5mb 75f 76f
3:50am 5.5ft 8s 6s 11 13 mph 1023.5mb 75f 75f
2:50am 6ft 8s 6s 13 16 mph 1023.6mb 75f 75f
1:50am 5.5ft 8s 5s 18 20 mph 1023.9mb 75f 76f
12:50am 6ft 8s 5s 16 20 mph 1024.3mb 75f 76f
Sun 05/24 11:50pm 6ft 8s 5s 16 20 mph 1024.6mb 75f 76f
10:50pm 6ft 7s 5s 20 22 mph 1024.7mb 75f 75f
9:50pm 5ft 7s 5s 18 20 mph 1024.4mb 75f 76f
8:50pm 4.5ft 7s 5s 11 16 mph 1024.7mb 75f 76f
7:50pm 4.5ft 8s 5s 11 13 mph 1024.5mb 75f 76f
6:50pm 3.5ft 8s 5s 9 11 mph 1024.3mb 75f 76f
5:50pm 3.5ft 8s 5s 11 13 mph 1024.2mb 75f 76f
4:50pm 4ft 8s 5s 16 18 mph 1024.4mb 75f 75f
3:50pm 4ft 8s 5s 16 20 mph 1025.2mb 75f 75f
2:50pm 4ft 8s 5s 16 18 mph 1025.7mb 75f 75f
1:50pm 4ft 8s 5s 11 16 mph 1026.4mb 75f 75f
12:50pm 4.5ft 8s 5s 11 13 mph 1026.5mb 75f 75f
11:50am 4.5ft 8s 5s 11 13 mph 1026.8mb 75f 75f
10:50am 4.5ft 7s 5s 11
mph
1026.9mb 75f 75f
9:50am 4.5ft 8s 5s 9 11 mph 1026.9mb 75f 75f
8:50am 4.5ft 7s 5s 11
mph
1026.6mb 75f 75f
7:50am 4.5ft 8s 5s 11 13 mph 1026.6mb 74f 75f
6:50am 4.5ft 6s 5s 13 16 mph 1025.8mb 74f 75f
5:50am 4.5ft 6s 5s 13 16 mph 1025.7mb 74f 75f
4:50am 4.5ft 6s 5s 16 18 mph 1025.2mb 74f 75f
3:50am 5ft 7s 5s 16 18 mph 1025.1mb 74f 75f
2:50am 5ft 6s 5s 16 20 mph 1025mb 75f 75f
1:50am 5ft 5s 5s 18 22 mph 1025.2mb 75f 75f
12:50am 5ft 7s 5s 18 20 mph 1025.4mb 75f 75f
Sat 05/23 11:50pm 5ft 6s 5s 16 20 mph 1026mb 75f 75f
10:50pm 5ft 6s 5s 13 16 mph 1026.1mb 75f 75f
9:50pm 4.5ft 6s 5s 20 25 mph 1025.4mb 75f 75f
8:50pm 4.5ft 6s 5s 20 25 mph 1025.3mb 75f 75f
7:50pm 4.5ft 6s 5s 18 20 mph 1025.7mb 75f 75f
6:50pm 5ft 6s 5s 20 22 mph 1025.7mb 75f 74f
5:50pm 5ft 6s 5s 20 25 mph 1026mb 75f 74f
4:50pm 4.5ft 6s 5s 20 22 mph 1026.1mb 76f 74f